01:22 MTB Moetz - Roppen - Oetztaltrail - Silz - Staudach - Moetz
Ort Moetz Datum 30.08.2015 15:38:30
Kategorie MTB
Distanz 30,13 Kilometer Steigung 186,0 Meter Gefälle -178,0 Meter
Gesamt Zeit 01:23:02 Aktiv 01:22:16 Pause 00:00:46
Durchs. Tempo 22,0 km/h Tempo max. 38,7 km/h Tempo min. 6,6 km/h
Kalorien 0 Durchs. HF 107 BPM HF max. 137 BPM
Wetter 33 °C Clear Min/Max: 32,8 °C/33,2 °C; Druck: 1017,7 mbar; Rel. Feuchte: 30,2%; Taupunkt: 12,8 °C; Windgeschwindigkeit: 11,1 km/h; Niederschlag: 0,0mm
Ausrüstung Bontrager - Race X Lite MTB
Schwalbe - Nobby Nic vorne
Shimano - HG-XTR 7701
Specialized - Stumpjumper Comp
Schwalbe - Racing Ralph hinten
Notiz Moetz - Roppen - Oetztaltrail - Silz - Staudach - Moetz ... trocken, super Wetter, locker ... garmin connect
Splits
Distanz (km) Gesamt Zeit Split Zeit Split Tempo Split Tempo Höhenprofil (m)
1,00 00:02:34 00:02:34 00:02:34 23,3 -0,36
2,00 00:04:57 00:02:23 00:02:24 25,1 2,51
3,00 00:07:31 00:02:33 00:02:34 23,5 5,68
4,00 00:09:40 00:02:09 00:02:09 27,8 0,20
5,00 00:11:48 00:02:08 00:02:08 28,1 -1,49
6,00 00:13:59 00:02:10 00:02:11 27,6 3,31
7,00 00:16:25 00:02:26 00:02:26 24,6 13,70
8,00 00:20:58 00:04:32 00:04:33 13,2 46,26
9,00 00:23:48 00:02:50 00:02:50 21,1 -9,60
10,00 00:25:46 00:01:57 00:01:58 30,5 -15,58
11,00 00:27:53 00:02:06 00:02:06 28,5 -16,33
12,00 00:31:36 00:03:43 00:03:43 16,1 24,21
13,00 00:34:25 00:02:49 00:02:49 21,3 -4,64
14,00 00:37:15 00:02:49 00:02:50 21,2 -0,83
15,00 00:40:44 00:03:29 00:03:30 17,2 -4,31
16,00 00:43:50 00:03:05 00:03:05 19,4 1,48
17,00 00:46:17 00:02:27 00:02:28 24,4 -3,11
18,00 00:48:53 00:02:35 00:02:36 23,1 -8,38
19,00 00:52:39 00:03:45 00:03:46 16,0 6,39
20,00 00:55:51 00:03:12 00:03:13 18,7 -18,82
21,00 00:58:26 00:02:34 00:02:35 23,3 -9,12
22,00 01:00:57 00:02:31 00:02:31 23,8 0,90
23,00 01:04:27 00:03:30 00:03:30 17,1 2,61
24,00 01:07:02 00:02:35 00:02:35 23,2 -1,62
25,00 01:09:32 00:02:30 00:02:30 24,0 1,47
26,00 01:11:59 00:02:26 00:02:26 24,6 -9,43
27,00 01:14:34 00:02:35 00:02:35 23,2 -3,90
28,00 01:17:00 00:02:25 00:02:26 24,7 -6,68
29,00 01:19:14 00:02:14 00:02:15 26,7 -5,28
30,00 01:22:05 00:02:50 00:02:50 21,1 15,46
30,06 01:22:16 00:00:10 00:02:57 20,4 -1,37